sensor_id;sensor_type;location;lat;lon;timestamp;pressure;altitude;pressure_sealevel;temperature
40968;BMP280;57377;45.130;6.038;2023-01-05T01:00:50;93751.91;;;7.07
40968;BMP280;57377;45.130;6.038;2023-01-05T01:03:16;93748.69;;;7.00
40968;BMP280;57377;45.130;6.038;2023-01-05T01:05:41;93757.56;;;7.20
40968;BMP280;57377;45.130;6.038;2023-01-05T01:08:09;93748.84;;;7.42
40968;BMP280;57377;45.130;6.038;2023-01-05T01:10:38;93743.78;;;7.52
40968;BMP280;57377;45.130;6.038;2023-01-05T01:13:04;93752.28;;;7.32
40968;BMP280;57377;45.130;6.038;2023-01-05T01:15:29;93745.22;;;7.43
40968;BMP280;57377;45.130;6.038;2023-01-05T01:17:54;93751.66;;;7.25
40968;BMP280;57377;45.130;6.038;2023-01-05T01:20:20;93758.91;;;7.06
40968;BMP280;57377;45.130;6.038;2023-01-05T01:22:45;93753.72;;;7.23
40968;BMP280;57377;45.130;6.038;2023-01-05T01:25:11;93755.44;;;7.01
40968;BMP280;57377;45.130;6.038;2023-01-05T01:27:36;93752.44;;;6.93
40968;BMP280;57377;45.130;6.038;2023-01-05T01:30:02;93752.75;;;7.29
40968;BMP280;57377;45.130;6.038;2023-01-05T01:32:27;93758.16;;;7.43
40968;BMP280;57377;45.130;6.038;2023-01-05T01:34:52;93749.84;;;7.41
40968;BMP280;57377;45.130;6.038;2023-01-05T01:37:19;93757.94;;;7.29
40968;BMP280;57377;45.130;6.038;2023-01-05T01:39:44;93756.84;;;7.25
40968;BMP280;57377;45.130;6.038;2023-01-05T01:42:14;93758.88;;;6.90
40968;BMP280;57377;45.130;6.038;2023-01-05T01:47:16;93765.78;;;6.85
40968;BMP280;57377;45.130;6.038;2023-01-05T01:49:43;93769.69;;;6.71
40968;BMP280;57377;45.130;6.038;2023-01-05T01:52:09;93772.75;;;6.84
40968;BMP280;57377;45.130;6.038;2023-01-05T01:54:34;93781.78;;;7.14
40968;BMP280;57377;45.130;6.038;2023-01-05T01:57:00;93772.22;;;7.31
40968;BMP280;57377;45.130;6.038;2023-01-05T01:59:26;93792.44;;;6.58
40968;BMP280;57377;45.130;6.038;2023-01-05T02:01:54;93785.41;;;6.70
40968;BMP280;57377;45.130;6.038;2023-01-05T02:04:23;93782.00;;;6.53
40968;BMP280;57377;45.130;6.038;2023-01-05T02:06:52;93797.13;;;6.06
40968;BMP280;57377;45.130;6.038;2023-01-05T02:09:20;93787.84;;;6.32
40968;BMP280;57377;45.130;6.038;2023-01-05T02:11:56;93791.06;;;6.39
40968;BMP280;57377;45.130;6.038;2023-01-05T02:17:38;93784.41;;;6.15
40968;BMP280;57377;45.130;6.038;2023-01-05T02:28:22;93784.41;;;6.15
40968;BMP280;57377;45.130;6.038;2023-01-05T02:36:52;93763.09;;;6.64
40968;BMP280;57377;45.130;6.038;2023-01-05T02:39:33;93767.03;;;6.82
40968;BMP280;57377;45.130;6.038;2023-01-05T02:42:09;93754.56;;;6.79
40968;BMP280;57377;45.130;6.038;2023-01-05T02:44:37;93758.47;;;6.10
40968;BMP280;57377;45.130;6.038;2023-01-05T02:47:51;93759.28;;;6.00
40968;BMP280;57377;45.130;6.038;2023-01-05T02:49:56;93758.66;;;6.48
40968;BMP280;57377;45.130;6.038;2023-01-05T02:52:24;93758.47;;;6.38
40968;BMP280;57377;45.130;6.038;2023-01-05T02:54:57;93752.22;;;6.34
40968;BMP280;57377;45.130;6.038;2023-01-05T02:57:30;93741.94;;;6.67
40968;BMP280;57377;45.130;6.038;2023-01-05T03:00:29;93733.94;;;6.68
40968;BMP280;57377;45.130;6.038;2023-01-05T03:03:07;93738.34;;;6.68
40968;BMP280;57377;45.130;6.038;2023-01-05T03:05:48;93727.81;;;6.74
40968;BMP280;57377;45.130;6.038;2023-01-05T03:08:16;93722.03;;;6.83
40968;BMP280;57377;45.130;6.038;2023-01-05T03:11:00;93731.25;;;6.19
40968;BMP280;57377;45.130;6.038;2023-01-05T03:13:47;93714.81;;;6.69
40968;BMP280;57377;45.130;6.038;2023-01-05T03:16:19;93718.34;;;6.63
40968;BMP280;57377;45.130;6.038;2023-01-05T03:18:46;93709.09;;;6.83
40968;BMP280;57377;45.130;6.038;2023-01-05T03:21:32;93706.19;;;6.64
40968;BMP280;57377;45.130;6.038;2023-01-05T03:24:17;93698.13;;;6.60
40968;BMP280;57377;45.130;6.038;2023-01-05T03:27:02;93700.06;;;6.70
40968;BMP280;57377;45.130;6.038;2023-01-05T03:29:47;93698.50;;;6.52
40968;BMP280;57377;45.130;6.038;2023-01-05T03:32:32;93702.06;;;6.63
40968;BMP280;57377;45.130;6.038;2023-01-05T03:35:20;93688.09;;;6.64
40968;BMP280;57377;45.130;6.038;2023-01-05T03:38:16;93681.09;;;6.48
40968;BMP280;57377;45.130;6.038;2023-01-05T03:40:44;93681.66;;;6.50
40968;BMP280;57377;45.130;6.038;2023-01-05T03:43:11;93677.69;;;6.59
40968;BMP280;57377;45.130;6.038;2023-01-05T03:45:43;93676.81;;;6.53
40968;BMP280;57377;45.130;6.038;2023-01-05T03:48:09;93682.91;;;6.47
40968;BMP280;57377;45.130;6.038;2023-01-05T03:50:35;93674.84;;;6.44
40968;BMP280;57377;45.130;6.038;2023-01-05T03:53:01;93676.50;;;6.66
40968;BMP280;57377;45.130;6.038;2023-01-05T03:55:27;93674.84;;;6.44
40968;BMP280;57377;45.130;6.038;2023-01-05T03:57:52;93674.44;;;6.36
40968;BMP280;57377;45.130;6.038;2023-01-05T04:00:17;93667.81;;;6.56
40968;BMP280;57377;45.130;6.038;2023-01-05T04:02:45;93665.31;;;6.61
40968;BMP280;57377;45.130;6.038;2023-01-05T04:05:10;93657.47;;;6.56
40968;BMP280;57377;45.130;6.038;2023-01-05T04:07:36;93665.75;;;6.74
40968;BMP280;57377;45.130;6.038;2023-01-05T04:10:01;93659.50;;;6.54
40968;BMP280;57377;45.130;6.038;2023-01-05T04:12:27;93649.25;;;6.75
40968;BMP280;57377;45.130;6.038;2023-01-05T04:14:53;93659.03;;;6.89
40968;BMP280;57377;45.130;6.038;2023-01-05T04:17:18;93656.84;;;6.65
40968;BMP280;57377;45.130;6.038;2023-01-05T04:19:43;93650.09;;;6.64
40968;BMP280;57377;45.130;6.038;2023-01-05T04:22:09;93650.91;;;6.48
40968;BMP280;57377;45.130;6.038;2023-01-05T04:24:34;93647.75;;;6.46
40968;BMP280;57377;45.130;6.038;2023-01-05T04:27:00;93646.81;;;6.69
40968;BMP280;57377;45.130;6.038;2023-01-05T04:29:25;93647.88;;;7.05
40968;BMP280;57377;45.130;6.038;2023-01-05T04:31:50;93657.53;;;7.31
40968;BMP280;57377;45.130;6.038;2023-01-05T04:34:16;93645.03;;;7.06
40968;BMP280;57377;45.130;6.038;2023-01-05T04:36:41;93643.19;;;6.86
40968;BMP280;57377;45.130;6.038;2023-01-05T04:39:35;93645.19;;;7.00
40968;BMP280;57377;45.130;6.038;2023-01-05T04:42:11;93642.78;;;6.94
40968;BMP280;57377;45.130;6.038;2023-01-05T04:44:37;93647.19;;;7.31
40968;BMP280;57377;45.130;6.038;2023-01-05T04:47:02;93641.97;;;7.47
40968;BMP280;57377;45.130;6.038;2023-01-05T04:49:28;93638.25;;;7.22
40968;BMP280;57377;45.130;6.038;2023-01-05T04:51:53;93636.31;;;6.75
40968;BMP280;57377;45.130;6.038;2023-01-05T04:54:19;93636.47;;;6.52
40968;BMP280;57377;45.130;6.038;2023-01-05T04:56:44;93631.28;;;6.69
40968;BMP280;57377;45.130;6.038;2023-01-05T04:59:09;93637.88;;;6.60
40968;BMP280;57377;45.130;6.038;2023-01-05T05:01:35;93639.38;;;6.56
40968;BMP280;57377;45.130;6.038;2023-01-05T05:04:00;93639.91;;;6.58
40968;BMP280;57377;45.130;6.038;2023-01-05T05:06:55;93646.81;;;6.69
40968;BMP280;57377;45.130;6.038;2023-01-05T05:09:25;93643.50;;;6.89
40968;BMP280;57377;45.130;6.038;2023-01-05T05:12:31;93643.09;;;6.97
40968;BMP280;57377;45.130;6.038;2023-01-05T05:14:56;93640.81;;;7.01
40968;BMP280;57377;45.130;6.038;2023-01-05T05:17:22;93652.28;;;6.88
40968;BMP280;57377;45.130;6.038;2023-01-05T05:19:48;93661.25;;;7.18
40968;BMP280;57377;45.130;6.038;2023-01-05T05:22:14;93659.97;;;6.51
40968;BMP280;57377;45.130;6.038;2023-01-05T05:24:39;93663.25;;;6.46
40968;BMP280;57377;45.130;6.038;2023-01-05T05:27:05;93657.25;;;6.13
40968;BMP280;57377;45.130;6.038;2023-01-05T05:29:30;93657.63;;;6.66
40968;BMP280;57377;45.130;6.038;2023-01-05T05:31:56;93658.72;;;6.53
40968;BMP280;57377;45.130;6.038;2023-01-05T05:34:21;93656.84;;;6.49
40968;BMP280;57377;45.130;6.038;2023-01-05T05:36:54;93654.44;;;6.31
40968;BMP280;57377;45.130;6.038;2023-01-05T05:39:20;93652.31;;;6.56
40968;BMP280;57377;45.130;6.038;2023-01-05T05:41:45;93656.00;;;6.16
40968;BMP280;57377;45.130;6.038;2023-01-05T05:44:10;93661.69;;;5.74
40968;BMP280;57377;45.130;6.038;2023-01-05T05:46:36;93665.22;;;6.12
40968;BMP280;57377;45.130;6.038;2023-01-05T05:49:01;93663.59;;;5.67
40968;BMP280;57377;45.130;6.038;2023-01-05T05:51:27;93672.88;;;5.91
40968;BMP280;57377;45.130;6.038;2023-01-05T05:53:53;93668.69;;;5.90
40968;BMP280;57377;45.130;6.038;2023-01-05T05:56:30;93677.72;;;5.26
40968;BMP280;57377;45.130;6.038;2023-01-05T05:58:58;93674.38;;;5.64
40968;BMP280;57377;45.130;6.038;2023-01-05T07:03:15;93691.47;;;5.42
40968;BMP280;57377;45.130;6.038;2023-01-05T07:20:07;93670.19;;;6.13
40968;BMP280;57377;45.130;6.038;2023-01-05T07:26:44;93658.38;;;5.90
40968;BMP280;57377;45.130;6.038;2023-01-05T07:40:00;93654.41;;;5.99
40968;BMP280;57377;45.130;6.038;2023-01-05T08:12:56;93672.28;;;6.16
40968;BMP280;57377;45.130;6.038;2023-01-05T08:16:05;93666.53;;;5.59
40968;BMP280;57377;45.130;6.038;2023-01-05T08:19:21;93666.38;;;6.05
40968;BMP280;57377;45.130;6.038;2023-01-05T08:25:17;93655.84;;;5.67
40968;BMP280;57377;45.130;6.038;2023-01-05T08:29:02;93662.28;;;5.53
40968;BMP280;57377;45.130;6.038;2023-01-05T08:31:46;93667.84;;;6.28
40968;BMP280;57377;45.130;6.038;2023-01-05T08:34:20;93653.16;;;6.61
40968;BMP280;57377;45.130;6.038;2023-01-05T08:48:29;93641.16;;;6.39
40968;BMP280;57377;45.130;6.038;2023-01-05T09:51:06;93634.50;;;6.59
40968;BMP280;57377;45.130;6.038;2023-01-05T17:23:39;93358.28;;;9.18
40968;BMP280;57377;45.130;6.038;2023-01-05T17:26:16;93370.19;;;8.99
40968;BMP280;57377;45.130;6.038;2023-01-05T17:28:42;93367.06;;;9.02
40968;BMP280;57377;45.130;6.038;2023-01-05T17:31:10;93364.00;;;9.15
40968;BMP280;57377;45.130;6.038;2023-01-05T17:33:36;93365.81;;;9.29
40968;BMP280;57377;45.130;6.038;2023-01-05T17:36:06;93363.47;;;9.18
40968;BMP280;57377;45.130;6.038;2023-01-05T19:05:17;93354.06;;;7.81
40968;BMP280;57377;45.130;6.038;2023-01-05T19:25:58;93354.00;;;7.71
40968;BMP280;57377;45.130;6.038;2023-01-05T20:07:37;93350.56;;;8.06
40968;BMP280;57377;45.130;6.038;2023-01-05T21:40:28;93390.16;;;7.56
40968;BMP280;57377;45.130;6.038;2023-01-05T21:42:54;93391.94;;;7.56
40968;BMP280;57377;45.130;6.038;2023-01-05T21:45:22;93400.84;;;7.38
40968;BMP280;57377;45.130;6.038;2023-01-05T21:47:52;93400.25;;;7.32
40968;BMP280;57377;45.130;6.038;2023-01-05T21:50:18;93397.84;;;7.51
40968;BMP280;57377;45.130;6.038;2023-01-05T21:53:02;93406.59;;;7.45
40968;BMP280;57377;45.130;6.038;2023-01-05T21:55:46;93408.97;;;7.21
40968;BMP280;57377;45.130;6.038;2023-01-05T21:58:52;93409.47;;;7.18
40968;BMP280;57377;45.130;6.038;2023-01-05T22:01:18;93407.59;;;6.87
40968;BMP280;57377;45.130;6.038;2023-01-05T22:03:44;93392.94;;;6.98
40968;BMP280;57377;45.130;6.038;2023-01-05T22:06:10;93403.81;;;6.73
40968;BMP280;57377;45.130;6.038;2023-01-05T22:08:35;93417.44;;;6.48
40968;BMP280;57377;45.130;6.038;2023-01-05T22:11:01;93405.66;;;6.36
40968;BMP280;57377;45.130;6.038;2023-01-05T22:13:30;93417.66;;;6.63
40968;BMP280;57377;45.130;6.038;2023-01-05T22:15:56;93411.84;;;6.77
40968;BMP280;57377;45.130;6.038;2023-01-05T22:18:23;93414.75;;;7.28
40968;BMP280;57377;45.130;6.038;2023-01-05T22:20:59;93408.78;;;7.01
40968;BMP280;57377;45.130;6.038;2023-01-05T22:23:26;93409.06;;;7.04
40968;BMP280;57377;45.130;6.038;2023-01-05T22:26:09;93413.53;;;6.67
40968;BMP280;57377;45.130;6.038;2023-01-05T22:28:37;93417.56;;;6.58
40968;BMP280;57377;45.130;6.038;2023-01-05T22:31:18;93414.63;;;6.71
40968;BMP280;57377;45.130;6.038;2023-01-05T22:33:46;93415.66;;;6.70
40968;BMP280;57377;45.130;6.038;2023-01-05T22:36:13;93418.38;;;6.79
40968;BMP280;57377;45.130;6.038;2023-01-05T22:38:41;93411.19;;;6.86
40968;BMP280;57377;45.130;6.038;2023-01-05T22:41:08;93416.00;;;6.99
40968;BMP280;57377;45.130;6.038;2023-01-05T22:43:38;93420.81;;;6.91
40968;BMP280;57377;45.130;6.038;2023-01-05T22:46:11;93423.13;;;6.66
40968;BMP280;57377;45.130;6.038;2023-01-05T22:48:39;93409.41;;;6.66
40968;BMP280;57377;45.130;6.038;2023-01-05T22:51:07;93407.00;;;7.06
40968;BMP280;57377;45.130;6.038;2023-01-05T22:53:33;93410.91;;;6.83
40968;BMP280;57377;45.130;6.038;2023-01-05T22:55:59;93414.19;;;7.00
40968;BMP280;57377;45.130;6.038;2023-01-05T22:58:25;93407.03;;;6.85
40968;BMP280;57377;45.130;6.038;2023-01-05T23:00:53;93412.31;;;6.95
40968;BMP280;57377;45.130;6.038;2023-01-05T23:03:19;93405.78;;;7.14
40968;BMP280;57377;45.130;6.038;2023-01-05T23:05:44;93403.34;;;7.29
40968;BMP280;57377;45.130;6.038;2023-01-05T23:08:10;93408.38;;;7.14
40968;BMP280;57377;45.130;6.038;2023-01-05T23:10:35;93409.63;;;6.85
40968;BMP280;57377;45.130;6.038;2023-01-05T23:13:01;93405.25;;;6.65
40968;BMP280;57377;45.130;6.038;2023-01-05T23:15:26;93405.53;;;6.89
40968;BMP280;57377;45.130;6.038;2023-01-05T23:17:52;93401.06;;;7.06
40968;BMP280;57377;45.130;6.038;2023-01-05T23:20:17;93404.16;;;7.08
40968;BMP280;57377;45.130;6.038;2023-01-05T23:22:43;93393.03;;;6.81
40968;BMP280;57377;45.130;6.038;2023-01-05T23:25:09;93392.50;;;7.05
40968;BMP280;57377;45.130;6.038;2023-01-05T23:27:38;93393.03;;;6.81
40968;BMP280;57377;45.130;6.038;2023-01-05T23:30:23;93394.31;;;7.05
40968;BMP280;57377;45.130;6.038;2023-01-05T23:32:51;93384.09;;;6.94
40968;BMP280;57377;45.130;6.038;2023-01-05T23:35:17;93398.13;;;6.98
40968;BMP280;57377;45.130;6.038;2023-01-05T23:37:43;93389.63;;;7.02
40968;BMP280;57377;45.130;6.038;2023-01-05T23:40:09;93384.38;;;6.92
40968;BMP280;57377;45.130;6.038;2023-01-05T23:42:34;93386.75;;;6.51
40968;BMP280;57377;45.130;6.038;2023-01-05T23:45:12;93390.53;;;6.65
40968;BMP280;57377;45.130;6.038;2023-01-05T23:47:40;93388.41;;;6.62
40968;BMP280;57377;45.130;6.038;2023-01-05T23:50:06;93385.88;;;6.88
40968;BMP280;57377;45.130;6.038;2023-01-05T23:52:32;93383.09;;;6.95
40968;BMP280;57377;45.130;6.038;2023-01-05T23:54:57;93383.81;;;7.16
40968;BMP280;57377;45.130;6.038;2023-01-05T23:57:23;93374.00;;;7.44
40968;BMP280;57377;45.130;6.038;2023-01-05T23:59:48;93374.91;;;7.34
